sensor_id;sensor_type;location;lat;lon;timestamp;P1;durP1;ratioP1;P2;durP2;ratioP2
11791;SDS011;5953;52.372;9.918;2024-02-28T00:00:05;14.77;;;9.87;;
11791;SDS011;5953;52.372;9.918;2024-02-28T00:02:35;10.57;;;8.67;;
11791;SDS011;5953;52.372;9.918;2024-02-28T00:05:03;13.07;;;8.57;;
11791;SDS011;5953;52.372;9.918;2024-02-28T00:07:31;11.90;;;7.97;;
11791;SDS011;5953;52.372;9.918;2024-02-28T00:09:59;11.07;;;8.83;;
11791;SDS011;5953;52.372;9.918;2024-02-28T00:12:26;12.97;;;9.00;;
11791;SDS011;5953;52.372;9.918;2024-02-28T00:14:54;13.13;;;9.30;;
11791;SDS011;5953;52.372;9.918;2024-02-28T00:17:22;11.00;;;8.63;;
11791;SDS011;5953;52.372;9.918;2024-02-28T00:19:52;11.83;;;9.03;;
11791;SDS011;5953;52.372;9.918;2024-02-28T00:22:20;15.30;;;10.90;;
11791;SDS011;5953;52.372;9.918;2024-02-28T00:24:48;18.53;;;11.67;;
11791;SDS011;5953;52.372;9.918;2024-02-28T00:27:16;15.37;;;11.60;;
11791;SDS011;5953;52.372;9.918;2024-02-28T00:29:44;16.27;;;11.60;;
11791;SDS011;5953;52.372;9.918;2024-02-28T00:32:13;14.70;;;10.33;;
11791;SDS011;5953;52.372;9.918;2024-02-28T00:34:40;14.13;;;10.20;;
11791;SDS011;5953;52.372;9.918;2024-02-28T00:37:09;14.37;;;10.03;;
11791;SDS011;5953;52.372;9.918;2024-02-28T00:39:40;11.57;;;8.73;;
11791;SDS011;5953;52.372;9.918;2024-02-28T00:42:08;12.47;;;9.27;;
11791;SDS011;5953;52.372;9.918;2024-02-28T00:44:36;13.33;;;9.53;;
11791;SDS011;5953;52.372;9.918;2024-02-28T00:47:04;11.80;;;9.50;;
11791;SDS011;5953;52.372;9.918;2024-02-28T00:49:32;12.03;;;8.70;;
11791;SDS011;5953;52.372;9.918;2024-02-28T00:51:59;12.03;;;8.73;;
11791;SDS011;5953;52.372;9.918;2024-02-28T00:54:29;12.80;;;9.33;;
11791;SDS011;5953;52.372;9.918;2024-02-28T00:56:56;12.70;;;9.10;;
11791;SDS011;5953;52.372;9.918;2024-02-28T00:59:24;12.53;;;9.23;;
11791;SDS011;5953;52.372;9.918;2024-02-28T01:01:55;11.43;;;9.47;;
11791;SDS011;5953;52.372;9.918;2024-02-28T01:04:23;13.97;;;9.47;;
11791;SDS011;5953;52.372;9.918;2024-02-28T01:06:50;16.73;;;10.23;;
11791;SDS011;5953;52.372;9.918;2024-02-28T01:09:18;12.47;;;9.57;;
11791;SDS011;5953;52.372;9.918;2024-02-28T01:11:47;12.63;;;8.90;;
11791;SDS011;5953;52.372;9.918;2024-02-28T01:14:15;13.27;;;9.37;;
11791;SDS011;5953;52.372;9.918;2024-02-28T01:16:43;10.33;;;8.17;;
11791;SDS011;5953;52.372;9.918;2024-02-28T01:19:11;12.53;;;9.30;;
11791;SDS011;5953;52.372;9.918;2024-02-28T01:21:39;14.70;;;10.17;;
11791;SDS011;5953;52.372;9.918;2024-02-28T01:24:07;12.50;;;9.30;;
11791;SDS011;5953;52.372;9.918;2024-02-28T01:26:34;11.83;;;9.33;;
11791;SDS011;5953;52.372;9.918;2024-02-28T01:29:03;10.93;;;9.10;;
11791;SDS011;5953;52.372;9.918;2024-02-28T01:31:31;12.10;;;9.47;;
11791;SDS011;5953;52.372;9.918;2024-02-28T01:33:59;12.07;;;9.50;;
11791;SDS011;5953;52.372;9.918;2024-02-28T01:36:27;14.07;;;9.70;;
11791;SDS011;5953;52.372;9.918;2024-02-28T01:38:55;13.70;;;10.27;;
11791;SDS011;5953;52.372;9.918;2024-02-28T01:41:22;15.03;;;9.70;;
11791;SDS011;5953;52.372;9.918;2024-02-28T01:43:50;13.83;;;9.70;;
11791;SDS011;5953;52.372;9.918;2024-02-28T01:46:22;13.70;;;10.10;;
11791;SDS011;5953;52.372;9.918;2024-02-28T01:48:52;14.63;;;10.07;;
11791;SDS011;5953;52.372;9.918;2024-02-28T01:51:20;13.00;;;10.20;;
11791;SDS011;5953;52.372;9.918;2024-02-28T01:53:50;12.37;;;9.00;;
11791;SDS011;5953;52.372;9.918;2024-02-28T01:56:20;13.60;;;9.37;;
11791;SDS011;5953;52.372;9.918;2024-02-28T01:58:49;12.23;;;9.60;;
11791;SDS011;5953;52.372;9.918;2024-02-28T02:01:17;12.37;;;9.63;;
11791;SDS011;5953;52.372;9.918;2024-02-28T02:03:47;14.70;;;10.97;;
11791;SDS011;5953;52.372;9.918;2024-02-28T02:06:15;14.83;;;10.00;;
11791;SDS011;5953;52.372;9.918;2024-02-28T02:08:43;15.73;;;10.17;;
11791;SDS011;5953;52.372;9.918;2024-02-28T02:11:12;15.10;;;10.33;;
11791;SDS011;5953;52.372;9.918;2024-02-28T02:13:47;14.03;;;9.90;;
11791;SDS011;5953;52.372;9.918;2024-02-28T02:16:15;16.17;;;10.30;;
11791;SDS011;5953;52.372;9.918;2024-02-28T02:18:43;15.83;;;10.60;;
11791;SDS011;5953;52.372;9.918;2024-02-28T02:21:13;14.17;;;10.50;;
11791;SDS011;5953;52.372;9.918;2024-02-28T02:23:46;17.97;;;10.73;;
11791;SDS011;5953;52.372;9.918;2024-02-28T02:26:17;14.10;;;10.47;;
11791;SDS011;5953;52.372;9.918;2024-02-28T02:28:45;13.17;;;10.03;;
11791;SDS011;5953;52.372;9.918;2024-02-28T02:31:13;14.23;;;9.60;;
11791;SDS011;5953;52.372;9.918;2024-02-28T02:33:41;13.37;;;9.10;;
11791;SDS011;5953;52.372;9.918;2024-02-28T02:36:09;16.17;;;10.53;;
11791;SDS011;5953;52.372;9.918;2024-02-28T02:38:37;14.83;;;10.57;;
11791;SDS011;5953;52.372;9.918;2024-02-28T02:41:06;14.37;;;10.30;;
11791;SDS011;5953;52.372;9.918;2024-02-28T02:43:34;12.67;;;9.50;;
11791;SDS011;5953;52.372;9.918;2024-02-28T02:46:02;13.93;;;10.50;;
11791;SDS011;5953;52.372;9.918;2024-02-28T02:48:30;13.80;;;11.13;;
11791;SDS011;5953;52.372;9.918;2024-02-28T02:50:59;17.80;;;11.23;;
11791;SDS011;5953;52.372;9.918;2024-02-28T02:53:27;15.77;;;10.97;;
11791;SDS011;5953;52.372;9.918;2024-02-28T02:55:55;17.80;;;12.80;;
11791;SDS011;5953;52.372;9.918;2024-02-28T02:58:24;15.43;;;11.43;;
11791;SDS011;5953;52.372;9.918;2024-02-28T03:00:52;16.73;;;11.83;;
11791;SDS011;5953;52.372;9.918;2024-02-28T03:03:21;17.90;;;12.53;;
11791;SDS011;5953;52.372;9.918;2024-02-28T03:05:49;16.77;;;12.33;;
11791;SDS011;5953;52.372;9.918;2024-02-28T03:08:17;15.73;;;11.97;;
11791;SDS011;5953;52.372;9.918;2024-02-28T03:10:45;16.70;;;12.43;;
11791;SDS011;5953;52.372;9.918;2024-02-28T03:13:13;15.07;;;11.43;;
11791;SDS011;5953;52.372;9.918;2024-02-28T03:15:43;14.70;;;11.17;;
11791;SDS011;5953;52.372;9.918;2024-02-28T03:18:11;16.17;;;12.27;;
11791;SDS011;5953;52.372;9.918;2024-02-28T03:20:39;17.13;;;11.60;;
11791;SDS011;5953;52.372;9.918;2024-02-28T03:23:07;14.43;;;10.93;;
11791;SDS011;5953;52.372;9.918;2024-02-28T03:25:34;17.80;;;11.73;;
11791;SDS011;5953;52.372;9.918;2024-02-28T03:28:03;14.83;;;11.77;;
11791;SDS011;5953;52.372;9.918;2024-02-28T03:30:31;14.83;;;11.17;;
11791;SDS011;5953;52.372;9.918;2024-02-28T03:33:00;14.80;;;11.30;;
11791;SDS011;5953;52.372;9.918;2024-02-28T03:35:28;16.03;;;11.60;;
11791;SDS011;5953;52.372;9.918;2024-02-28T03:37:56;19.27;;;12.63;;
11791;SDS011;5953;52.372;9.918;2024-02-28T03:40:25;14.27;;;11.03;;
11791;SDS011;5953;52.372;9.918;2024-02-28T03:42:53;17.03;;;12.53;;
11791;SDS011;5953;52.372;9.918;2024-02-28T03:45:30;15.07;;;11.53;;
11791;SDS011;5953;52.372;9.918;2024-02-28T03:47:58;17.00;;;12.50;;
11791;SDS011;5953;52.372;9.918;2024-02-28T03:50:27;19.90;;;12.87;;
11791;SDS011;5953;52.372;9.918;2024-02-28T03:52:55;18.07;;;12.67;;
11791;SDS011;5953;52.372;9.918;2024-02-28T03:55:23;16.97;;;12.07;;
11791;SDS011;5953;52.372;9.918;2024-02-28T03:57:51;19.30;;;12.93;;
11791;SDS011;5953;52.372;9.918;2024-02-28T04:00:19;17.60;;;11.83;;
11791;SDS011;5953;52.372;9.918;2024-02-28T04:02:47;17.83;;;12.47;;
11791;SDS011;5953;52.372;9.918;2024-02-28T04:05:15;15.67;;;11.60;;
11791;SDS011;5953;52.372;9.918;2024-02-28T04:07:45;19.97;;;12.40;;
11791;SDS011;5953;52.372;9.918;2024-02-28T04:10:13;19.23;;;12.67;;
11791;SDS011;5953;52.372;9.918;2024-02-28T04:12:42;17.90;;;12.43;;
11791;SDS011;5953;52.372;9.918;2024-02-28T04:15:11;17.73;;;13.40;;
11791;SDS011;5953;52.372;9.918;2024-02-28T04:17:41;17.50;;;12.27;;
11791;SDS011;5953;52.372;9.918;2024-02-28T04:20:10;17.93;;;13.53;;
11791;SDS011;5953;52.372;9.918;2024-02-28T04:22:38;18.07;;;12.83;;
11791;SDS011;5953;52.372;9.918;2024-02-28T04:25:08;19.20;;;12.37;;
11791;SDS011;5953;52.372;9.918;2024-02-28T04:27:36;16.97;;;12.70;;
11791;SDS011;5953;52.372;9.918;2024-02-28T04:30:05;18.07;;;12.80;;
11791;SDS011;5953;52.372;9.918;2024-02-28T04:32:34;18.70;;;13.47;;
11791;SDS011;5953;52.372;9.918;2024-02-28T04:35:02;20.40;;;14.67;;
11791;SDS011;5953;52.372;9.918;2024-02-28T04:37:31;19.40;;;13.97;;
11791;SDS011;5953;52.372;9.918;2024-02-28T04:40:01;20.87;;;14.13;;
11791;SDS011;5953;52.372;9.918;2024-02-28T04:42:33;21.23;;;13.87;;
11791;SDS011;5953;52.372;9.918;2024-02-28T04:45:01;21.07;;;14.97;;
11791;SDS011;5953;52.372;9.918;2024-02-28T04:47:29;20.23;;;14.23;;
11791;SDS011;5953;52.372;9.918;2024-02-28T04:50:09;22.27;;;14.73;;
11791;SDS011;5953;52.372;9.918;2024-02-28T04:52:38;24.10;;;15.83;;
11791;SDS011;5953;52.372;9.918;2024-02-28T04:55:06;23.23;;;15.60;;
11791;SDS011;5953;52.372;9.918;2024-02-28T04:57:36;24.47;;;16.03;;
11791;SDS011;5953;52.372;9.918;2024-02-28T05:00:05;23.97;;;16.13;;
11791;SDS011;5953;52.372;9.918;2024-02-28T05:02:34;25.60;;;16.60;;
11791;SDS011;5953;52.372;9.918;2024-02-28T05:05:02;22.57;;;15.87;;
11791;SDS011;5953;52.372;9.918;2024-02-28T05:07:33;27.13;;;17.53;;
11791;SDS011;5953;52.372;9.918;2024-02-28T05:10:02;28.93;;;19.03;;
11791;SDS011;5953;52.372;9.918;2024-02-28T05:12:31;29.50;;;19.70;;
11791;SDS011;5953;52.372;9.918;2024-02-28T05:15:00;28.00;;;19.23;;
11791;SDS011;5953;52.372;9.918;2024-02-28T05:17:28;28.70;;;19.77;;
11791;SDS011;5953;52.372;9.918;2024-02-28T05:19:56;30.70;;;19.90;;
11791;SDS011;5953;52.372;9.918;2024-02-28T05:22:24;30.77;;;20.20;;
11791;SDS011;5953;52.372;9.918;2024-02-28T05:24:52;34.63;;;19.80;;
11791;SDS011;5953;52.372;9.918;2024-02-28T05:27:20;28.43;;;18.80;;
11791;SDS011;5953;52.372;9.918;2024-02-28T05:29:49;28.30;;;18.93;;
11791;SDS011;5953;52.372;9.918;2024-02-28T05:32:21;27.90;;;18.67;;
11791;SDS011;5953;52.372;9.918;2024-02-28T05:34:54;30.57;;;18.50;;
11791;SDS011;5953;52.372;9.918;2024-02-28T05:37:25;27.93;;;18.97;;
11791;SDS011;5953;52.372;9.918;2024-02-28T05:39:54;32.90;;;18.93;;
11791;SDS011;5953;52.372;9.918;2024-02-28T05:42:23;30.67;;;20.67;;
11791;SDS011;5953;52.372;9.918;2024-02-28T05:44:52;27.47;;;19.10;;
11791;SDS011;5953;52.372;9.918;2024-02-28T05:47:25;34.83;;;19.97;;
11791;SDS011;5953;52.372;9.918;2024-02-28T05:49:56;28.50;;;19.57;;
11791;SDS011;5953;52.372;9.918;2024-02-28T05:52:24;28.17;;;19.10;;
11791;SDS011;5953;52.372;9.918;2024-02-28T05:54:57;28.80;;;19.30;;
11791;SDS011;5953;52.372;9.918;2024-02-28T05:57:27;33.63;;;21.33;;
11791;SDS011;5953;52.372;9.918;2024-02-28T05:59:56;29.63;;;19.83;;
11791;SDS011;5953;52.372;9.918;2024-02-28T06:02:26;29.63;;;19.67;;
11791;SDS011;5953;52.372;9.918;2024-02-28T06:04:54;32.07;;;20.03;;
11791;SDS011;5953;52.372;9.918;2024-02-28T06:07:25;34.47;;;21.87;;
11791;SDS011;5953;52.372;9.918;2024-02-28T06:10:00;31.87;;;19.50;;
11791;SDS011;5953;52.372;9.918;2024-02-28T06:12:31;34.30;;;20.47;;
11791;SDS011;5953;52.372;9.918;2024-02-28T06:15:04;32.37;;;20.70;;
11791;SDS011;5953;52.372;9.918;2024-02-28T06:17:34;31.20;;;19.43;;
11791;SDS011;5953;52.372;9.918;2024-02-28T06:20:06;30.63;;;19.47;;
11791;SDS011;5953;52.372;9.918;2024-02-28T06:22:35;33.77;;;20.97;;
11791;SDS011;5953;52.372;9.918;2024-02-28T06:25:06;34.80;;;22.43;;
11791;SDS011;5953;52.372;9.918;2024-02-28T06:27:44;31.70;;;20.77;;
11791;SDS011;5953;52.372;9.918;2024-02-28T06:30:15;33.60;;;21.40;;
11791;SDS011;5953;52.372;9.918;2024-02-28T06:32:58;34.07;;;21.07;;
11791;SDS011;5953;52.372;9.918;2024-02-28T06:35:38;32.07;;;20.27;;
11791;SDS011;5953;52.372;9.918;2024-02-28T06:42:06;36.37;;;20.47;;
11791;SDS011;5953;52.372;9.918;2024-02-28T06:44:39;34.00;;;19.73;;
11791;SDS011;5953;52.372;9.918;2024-02-28T06:47:30;34.80;;;21.13;;
11791;SDS011;5953;52.372;9.918;2024-02-28T06:50:06;35.67;;;22.60;;
11791;SDS011;5953;52.372;9.918;2024-02-28T06:52:38;36.87;;;21.43;;
11791;SDS011;5953;52.372;9.918;2024-02-28T06:55:06;35.30;;;24.60;;
11791;SDS011;5953;52.372;9.918;2024-02-28T06:57:36;35.63;;;22.30;;
11791;SDS011;5953;52.372;9.918;2024-02-28T07:00:10;37.77;;;23.60;;
11791;SDS011;5953;52.372;9.918;2024-02-28T07:02:54;38.20;;;22.33;;
11791;SDS011;5953;52.372;9.918;2024-02-28T07:05:26;33.10;;;18.83;;
11791;SDS011;5953;52.372;9.918;2024-02-28T07:07:55;38.53;;;23.50;;
11791;SDS011;5953;52.372;9.918;2024-02-28T07:10:23;39.23;;;24.33;;
11791;SDS011;5953;52.372;9.918;2024-02-28T07:12:56;39.90;;;22.23;;
11791;SDS011;5953;52.372;9.918;2024-02-28T07:15:25;38.40;;;23.10;;
11791;SDS011;5953;52.372;9.918;2024-02-28T07:18:10;41.93;;;25.53;;
11791;SDS011;5953;52.372;9.918;2024-02-28T07:20:43;38.73;;;23.67;;
11791;SDS011;5953;52.372;9.918;2024-02-28T07:23:52;40.30;;;24.70;;
11791;SDS011;5953;52.372;9.918;2024-02-28T07:26:26;38.47;;;23.47;;
11791;SDS011;5953;52.372;9.918;2024-02-28T07:29:03;35.17;;;23.43;;
11791;SDS011;5953;52.372;9.918;2024-02-28T07:31:34;40.40;;;25.97;;
11791;SDS011;5953;52.372;9.918;2024-02-28T07:34:13;41.07;;;23.70;;
11791;SDS011;5953;52.372;9.918;2024-02-28T07:36:46;41.67;;;24.13;;
11791;SDS011;5953;52.372;9.918;2024-02-28T07:40:10;36.93;;;22.77;;
11791;SDS011;5953;52.372;9.918;2024-02-28T07:42:49;40.33;;;24.33;;
11791;SDS011;5953;52.372;9.918;2024-02-28T07:45:31;36.10;;;22.67;;
11791;SDS011;5953;52.372;9.918;2024-02-28T07:47:59;39.93;;;24.73;;
11791;SDS011;5953;52.372;9.918;2024-02-28T07:50:37;39.90;;;24.60;;
11791;SDS011;5953;52.372;9.918;2024-02-28T07:53:10;38.63;;;25.63;;
11791;SDS011;5953;52.372;9.918;2024-02-28T07:55:42;40.23;;;24.50;;
11791;SDS011;5953;52.372;9.918;2024-02-28T07:58:22;40.20;;;23.67;;
11791;SDS011;5953;52.372;9.918;2024-02-28T08:01:19;38.70;;;23.63;;
11791;SDS011;5953;52.372;9.918;2024-02-28T08:04:15;40.57;;;25.00;;
11791;SDS011;5953;52.372;9.918;2024-02-28T08:07:21;43.63;;;25.43;;
11791;SDS011;5953;52.372;9.918;2024-02-28T08:10:03;41.47;;;25.80;;
11791;SDS011;5953;52.372;9.918;2024-02-28T08:12:52;42.67;;;26.10;;
11791;SDS011;5953;52.372;9.918;2024-02-28T08:15:37;45.27;;;28.50;;
11791;SDS011;5953;52.372;9.918;2024-02-28T08:18:13;43.97;;;26.77;;
11791;SDS011;5953;52.372;9.918;2024-02-28T08:20:42;45.70;;;27.67;;
11791;SDS011;5953;52.372;9.918;2024-02-28T08:23:19;44.87;;;27.37;;
11791;SDS011;5953;52.372;9.918;2024-02-28T08:25:54;49.20;;;28.13;;
11791;SDS011;5953;52.372;9.918;2024-02-28T08:28:25;50.37;;;32.73;;
11791;SDS011;5953;52.372;9.918;2024-02-28T08:30:56;46.17;;;28.13;;
11791;SDS011;5953;52.372;9.918;2024-02-28T08:33:24;47.37;;;27.07;;
11791;SDS011;5953;52.372;9.918;2024-02-28T08:35:53;47.87;;;27.93;;
11791;SDS011;5953;52.372;9.918;2024-02-28T08:38:21;51.07;;;30.73;;
11791;SDS011;5953;52.372;9.918;2024-02-28T08:40:49;49.33;;;27.77;;
11791;SDS011;5953;52.372;9.918;2024-02-28T08:43:19;49.30;;;27.20;;
11791;SDS011;5953;52.372;9.918;2024-02-28T08:45:47;50.17;;;29.17;;
11791;SDS011;5953;52.372;9.918;2024-02-28T08:48:16;49.77;;;29.60;;
11791;SDS011;5953;52.372;9.918;2024-02-28T08:50:45;49.77;;;28.27;;
11791;SDS011;5953;52.372;9.918;2024-02-28T08:53:13;53.83;;;29.83;;
11791;SDS011;5953;52.372;9.918;2024-02-28T08:55:41;48.17;;;27.83;;
11791;SDS011;5953;52.372;9.918;2024-02-28T08:58:09;54.80;;;31.37;;
11791;SDS011;5953;52.372;9.918;2024-02-28T09:00:38;49.70;;;28.43;;
11791;SDS011;5953;52.372;9.918;2024-02-28T09:03:06;50.10;;;27.90;;
11791;SDS011;5953;52.372;9.918;2024-02-28T09:05:34;45.13;;;25.47;;
11791;SDS011;5953;52.372;9.918;2024-02-28T09:08:02;45.37;;;26.43;;
11791;SDS011;5953;52.372;9.918;2024-02-28T09:10:30;43.23;;;24.73;;
11791;SDS011;5953;52.372;9.918;2024-02-28T09:13:00;50.37;;;29.13;;
11791;SDS011;5953;52.372;9.918;2024-02-28T09:15:29;47.30;;;27.90;;
11791;SDS011;5953;52.372;9.918;2024-02-28T09:17:59;43.67;;;26.07;;
11791;SDS011;5953;52.372;9.918;2024-02-28T09:20:27;46.07;;;29.07;;
11791;SDS011;5953;52.372;9.918;2024-02-28T09:22:55;46.50;;;27.50;;
11791;SDS011;5953;52.372;9.918;2024-02-28T09:25:23;45.60;;;25.83;;
11791;SDS011;5953;52.372;9.918;2024-02-28T09:27:54;44.20;;;27.77;;
11791;SDS011;5953;52.372;9.918;2024-02-28T09:30:23;42.50;;;25.07;;
11791;SDS011;5953;52.372;9.918;2024-02-28T09:33:03;45.37;;;24.77;;
11791;SDS011;5953;52.372;9.918;2024-02-28T09:35:31;43.03;;;24.70;;
11791;SDS011;5953;52.372;9.918;2024-02-28T09:37:59;45.07;;;27.77;;
11791;SDS011;5953;52.372;9.918;2024-02-28T09:40:28;42.37;;;26.80;;
11791;SDS011;5953;52.372;9.918;2024-02-28T09:43:00;41.37;;;24.10;;
11791;SDS011;5953;52.372;9.918;2024-02-28T09:45:30;44.33;;;25.37;;
11791;SDS011;5953;52.372;9.918;2024-02-28T09:47:59;41.63;;;23.83;;
11791;SDS011;5953;52.372;9.918;2024-02-28T09:50:29;45.70;;;26.13;;
11791;SDS011;5953;52.372;9.918;2024-02-28T09:52:57;40.83;;;23.87;;
11791;SDS011;5953;52.372;9.918;2024-02-28T09:55:36;40.60;;;24.27;;
11791;SDS011;5953;52.372;9.918;2024-02-28T09:58:04;42.83;;;25.90;;
11791;SDS011;5953;52.372;9.918;2024-02-28T10:00:33;40.87;;;24.77;;
11791;SDS011;5953;52.372;9.918;2024-02-28T10:03:02;40.70;;;24.80;;
11791;SDS011;5953;52.372;9.918;2024-02-28T10:05:33;38.63;;;24.27;;
11791;SDS011;5953;52.372;9.918;2024-02-28T10:08:02;40.53;;;24.47;;
11791;SDS011;5953;52.372;9.918;2024-02-28T10:10:31;41.07;;;23.20;;
11791;SDS011;5953;52.372;9.918;2024-02-28T10:13:00;40.33;;;22.20;;
11791;SDS011;5953;52.372;9.918;2024-02-28T10:15:28;42.27;;;24.10;;
11791;SDS011;5953;52.372;9.918;2024-02-28T10:17:59;39.67;;;24.33;;
11791;SDS011;5953;52.372;9.918;2024-02-28T10:20:27;39.70;;;25.53;;
11791;SDS011;5953;52.372;9.918;2024-02-28T10:23:00;41.70;;;25.40;;
11791;SDS011;5953;52.372;9.918;2024-02-28T10:25:41;39.70;;;25.00;;
11791;SDS011;5953;52.372;9.918;2024-02-28T10:28:23;37.23;;;22.87;;
11791;SDS011;5953;52.372;9.918;2024-02-28T10:30:54;40.63;;;23.87;;
11791;SDS011;5953;52.372;9.918;2024-02-28T10:33:26;41.03;;;24.90;;
11791;SDS011;5953;52.372;9.918;2024-02-28T10:35:57;39.63;;;24.23;;
11791;SDS011;5953;52.372;9.918;2024-02-28T10:38:32;38.07;;;24.93;;
11791;SDS011;5953;52.372;9.918;2024-02-28T10:41:03;38.23;;;25.10;;
11791;SDS011;5953;52.372;9.918;2024-02-28T10:43:36;41.20;;;24.63;;
11791;SDS011;5953;52.372;9.918;2024-02-28T10:46:15;33.63;;;22.47;;
11791;SDS011;5953;52.372;9.918;2024-02-28T10:49:08;38.33;;;23.17;;
11791;SDS011;5953;52.372;9.918;2024-02-28T10:51:48;34.37;;;22.67;;
11791;SDS011;5953;52.372;9.918;2024-02-28T10:54:47;39.23;;;24.30;;
11791;SDS011;5953;52.372;9.918;2024-02-28T10:57:35;39.27;;;24.90;;
11791;SDS011;5953;52.372;9.918;2024-02-28T11:03:00;34.10;;;22.00;;
11791;SDS011;5953;52.372;9.918;2024-02-28T11:05:36;36.90;;;24.03;;
11791;SDS011;5953;52.372;9.918;2024-02-28T11:08:09;36.37;;;23.17;;
11791;SDS011;5953;52.372;9.918;2024-02-28T11:10:41;36.17;;;22.70;;
11791;SDS011;5953;52.372;9.918;2024-02-28T11:13:10;34.70;;;21.77;;
11791;SDS011;5953;52.372;9.918;2024-02-28T11:15:49;32.90;;;21.27;;
11791;SDS011;5953;52.372;9.918;2024-02-28T11:18:17;36.13;;;23.67;;
11791;SDS011;5953;52.372;9.918;2024-02-28T11:20:46;37.67;;;23.30;;
11791;SDS011;5953;52.372;9.918;2024-02-28T11:23:37;35.67;;;22.07;;
11791;SDS011;5953;52.372;9.918;2024-02-28T11:26:32;38.30;;;23.10;;
11791;SDS011;5953;52.372;9.918;2024-02-28T11:29:11;33.00;;;22.43;;
11791;SDS011;5953;52.372;9.918;2024-02-28T11:31:40;36.60;;;23.50;;
11791;SDS011;5953;52.372;9.918;2024-02-28T11:34:11;36.63;;;23.77;;
11791;SDS011;5953;52.372;9.918;2024-02-28T11:36:46;36.50;;;23.07;;
11791;SDS011;5953;52.372;9.918;2024-02-28T11:39:23;34.70;;;23.37;;
11791;SDS011;5953;52.372;9.918;2024-02-28T11:44:55;35.17;;;22.33;;
11791;SDS011;5953;52.372;9.918;2024-02-28T11:47:46;37.73;;;24.03;;
11791;SDS011;5953;52.372;9.918;2024-02-28T11:50:21;35.03;;;23.97;;
11791;SDS011;5953;52.372;9.918;2024-02-28T11:52:53;37.80;;;25.23;;
11791;SDS011;5953;52.372;9.918;2024-02-28T11:55:21;38.03;;;24.27;;
11791;SDS011;5953;52.372;9.918;2024-02-28T11:57:56;33.73;;;23.10;;
11791;SDS011;5953;52.372;9.918;2024-02-28T12:00:27;35.53;;;23.07;;
11791;SDS011;5953;52.372;9.918;2024-02-28T12:03:03;38.03;;;24.47;;
11791;SDS011;5953;52.372;9.918;2024-02-28T12:05:33;34.40;;;23.70;;
11791;SDS011;5953;52.372;9.918;2024-02-28T12:08:09;37.23;;;23.47;;
11791;SDS011;5953;52.372;9.918;2024-02-28T12:10:47;35.43;;;23.33;;
11791;SDS011;5953;52.372;9.918;2024-02-28T12:13:23;33.03;;;23.80;;
11791;SDS011;5953;52.372;9.918;2024-02-28T12:15:54;33.97;;;23.50;;
11791;SDS011;5953;52.372;9.918;2024-02-28T12:18:23;35.23;;;23.30;;
11791;SDS011;5953;52.372;9.918;2024-02-28T12:21:05;37.90;;;24.77;;
11791;SDS011;5953;52.372;9.918;2024-02-28T12:23:36;37.27;;;24.27;;
11791;SDS011;5953;52.372;9.918;2024-02-28T12:26:05;38.43;;;24.67;;
11791;SDS011;5953;52.372;9.918;2024-02-28T12:28:44;38.03;;;24.90;;
11791;SDS011;5953;52.372;9.918;2024-02-28T12:31:23;39.10;;;25.20;;
11791;SDS011;5953;52.372;9.918;2024-02-28T12:34:56;37.07;;;24.53;;
11791;SDS011;5953;52.372;9.918;2024-02-28T12:37:24;35.57;;;24.40;;
11791;SDS011;5953;52.372;9.918;2024-02-28T12:39:59;38.23;;;26.30;;
11791;SDS011;5953;52.372;9.918;2024-02-28T12:42:27;37.97;;;24.77;;
11791;SDS011;5953;52.372;9.918;2024-02-28T12:45:04;40.77;;;25.37;;
11791;SDS011;5953;52.372;9.918;2024-02-28T12:47:39;36.40;;;22.60;;
11791;SDS011;5953;52.372;9.918;2024-02-28T12:50:08;37.83;;;24.17;;
11791;SDS011;5953;52.372;9.918;2024-02-28T12:52:59;39.73;;;24.13;;
11791;SDS011;5953;52.372;9.918;2024-02-28T12:55:30;35.17;;;22.40;;
11791;SDS011;5953;52.372;9.918;2024-02-28T12:57:58;39.30;;;24.23;;
11791;SDS011;5953;52.372;9.918;2024-02-28T13:00:35;39.63;;;24.50;;
11791;SDS011;5953;52.372;9.918;2024-02-28T13:03:06;38.57;;;24.40;;
11791;SDS011;5953;52.372;9.918;2024-02-28T13:05:42;43.30;;;25.33;;
11791;SDS011;5953;52.372;9.918;2024-02-28T13:08:10;39.30;;;24.73;;
11791;SDS011;5953;52.372;9.918;2024-02-28T13:10:55;37.57;;;23.53;;
11791;SDS011;5953;52.372;9.918;2024-02-28T13:13:24;39.33;;;22.83;;
11791;SDS011;5953;52.372;9.918;2024-02-28T13:15:53;38.73;;;22.43;;
11791;SDS011;5953;52.372;9.918;2024-02-28T13:18:24;38.80;;;23.77;;
11791;SDS011;5953;52.372;9.918;2024-02-28T13:21:14;40.40;;;24.20;;
11791;SDS011;5953;52.372;9.918;2024-02-28T13:24:05;35.70;;;22.63;;
11791;SDS011;5953;52.372;9.918;2024-02-28T13:27:08;38.67;;;23.57;;
11791;SDS011;5953;52.372;9.918;2024-02-28T13:29:37;42.37;;;25.47;;
11791;SDS011;5953;52.372;9.918;2024-02-28T13:32:07;39.50;;;23.97;;
11791;SDS011;5953;52.372;9.918;2024-02-28T13:34:39;38.90;;;23.93;;
11791;SDS011;5953;52.372;9.918;2024-02-28T13:37:07;37.70;;;22.73;;
11791;SDS011;5953;52.372;9.918;2024-02-28T13:39:46;38.60;;;22.57;;
11791;SDS011;5953;52.372;9.918;2024-02-28T13:42:21;39.50;;;23.83;;
11791;SDS011;5953;52.372;9.918;2024-02-28T13:47:57;35.77;;;22.13;;
11791;SDS011;5953;52.372;9.918;2024-02-28T13:50:34;40.93;;;23.77;;
11791;SDS011;5953;52.372;9.918;2024-02-28T13:53:05;37.50;;;22.63;;
11791;SDS011;5953;52.372;9.918;2024-02-28T13:56:16;34.37;;;23.20;;
11791;SDS011;5953;52.372;9.918;2024-02-28T13:59:09;33.80;;;20.80;;
11791;SDS011;5953;52.372;9.918;2024-02-28T14:02:05;37.57;;;22.67;;
11791;SDS011;5953;52.372;9.918;2024-02-28T14:08:04;38.63;;;23.87;;
11791;SDS011;5953;52.372;9.918;2024-02-28T14:13:40;36.40;;;21.37;;
11791;SDS011;5953;52.372;9.918;2024-02-28T14:16:14;38.97;;;21.63;;
11791;SDS011;5953;52.372;9.918;2024-02-28T14:18:47;35.67;;;21.23;;
11791;SDS011;5953;52.372;9.918;2024-02-28T14:21:22;36.43;;;21.53;;
11791;SDS011;5953;52.372;9.918;2024-02-28T14:23:54;36.00;;;22.83;;
11791;SDS011;5953;52.372;9.918;2024-02-28T14:26:25;35.80;;;20.67;;
11791;SDS011;5953;52.372;9.918;2024-02-28T14:28:54;36.27;;;21.33;;
11791;SDS011;5953;52.372;9.918;2024-02-28T14:31:59;37.67;;;22.23;;
11791;SDS011;5953;52.372;9.918;2024-02-28T14:34:37;37.33;;;21.97;;
11791;SDS011;5953;52.372;9.918;2024-02-28T14:37:11;35.90;;;21.13;;
11791;SDS011;5953;52.372;9.918;2024-02-28T14:39:48;34.80;;;21.40;;
11791;SDS011;5953;52.372;9.918;2024-02-28T14:42:18;33.23;;;21.80;;
11791;SDS011;5953;52.372;9.918;2024-02-28T14:44:50;39.20;;;22.43;;
11791;SDS011;5953;52.372;9.918;2024-02-28T14:47:19;38.97;;;22.77;;
11791;SDS011;5953;52.372;9.918;2024-02-28T14:49:47;38.60;;;21.90;;
11791;SDS011;5953;52.372;9.918;2024-02-28T14:52:17;33.50;;;20.87;;
11791;SDS011;5953;52.372;9.918;2024-02-28T14:54:51;40.27;;;21.80;;
11791;SDS011;5953;52.372;9.918;2024-02-28T14:57:19;34.17;;;21.23;;
11791;SDS011;5953;52.372;9.918;2024-02-28T14:59:52;36.67;;;21.77;;
11791;SDS011;5953;52.372;9.918;2024-02-28T15:02:28;37.47;;;22.87;;
11791;SDS011;5953;52.372;9.918;2024-02-28T15:04:57;35.70;;;21.97;;
11791;SDS011;5953;52.372;9.918;2024-02-28T15:07:29;36.97;;;21.40;;
11791;SDS011;5953;52.372;9.918;2024-02-28T15:10:00;37.73;;;22.43;;
11791;SDS011;5953;52.372;9.918;2024-02-28T15:12:30;34.57;;;21.37;;
11791;SDS011;5953;52.372;9.918;2024-02-28T15:15:04;33.83;;;19.50;;
11791;SDS011;5953;52.372;9.918;2024-02-28T15:17:33;35.83;;;21.67;;
11791;SDS011;5953;52.372;9.918;2024-02-28T15:20:01;36.23;;;20.67;;
11791;SDS011;5953;52.372;9.918;2024-02-28T15:22:31;34.87;;;21.67;;
11791;SDS011;5953;52.372;9.918;2024-02-28T15:24:59;32.87;;;20.00;;